sensor_id;sensor_type;location;lat;lon;timestamp;pressure;altitude;pressure_sealevel;temperature;humidity
37848;BME280;23688;33.130;-117.188;2023-03-22T00:01:10;98799.47;;;13.33;86.32
37848;BME280;23688;33.130;-117.188;2023-03-22T00:03:37;98793.44;;;13.34;87.29
37848;BME280;23688;33.130;-117.188;2023-03-22T00:06:03;98792.97;;;13.13;90.46
37848;BME280;23688;33.130;-117.188;2023-03-22T00:08:29;98771.84;;;12.97;90.85
37848;BME280;23688;33.130;-117.188;2023-03-22T00:10:56;98779.66;;;12.97;91.19
37848;BME280;23688;33.130;-117.188;2023-03-22T00:13:22;98771.03;;;13.01;93.23
37848;BME280;23688;33.130;-117.188;2023-03-22T00:15:48;98783.22;;;13.04;91.97
37848;BME280;23688;33.130;-117.188;2023-03-22T00:18:15;98775.47;;;13.05;90.71
37848;BME280;23688;33.130;-117.188;2023-03-22T00:20:54;98766.47;;;12.91;89.24
37848;BME280;23688;33.130;-117.188;2023-03-22T00:23:21;98758.28;;;12.73;91.39
37848;BME280;23688;33.130;-117.188;2023-03-22T00:25:51;98764.41;;;12.75;92.55
37848;BME280;23688;33.130;-117.188;2023-03-22T00:28:20;98741.63;;;12.64;93.05
37848;BME280;23688;33.130;-117.188;2023-03-22T00:31:01;98753.16;;;12.77;92.80
37848;BME280;23688;33.130;-117.188;2023-03-22T00:33:28;98743.47;;;12.70;92.37
37848;BME280;23688;33.130;-117.188;2023-03-22T00:36:04;98747.34;;;12.89;93.67
37848;BME280;23688;33.130;-117.188;2023-03-22T00:38:31;98757.56;;;12.78;93.04
37848;BME280;23688;33.130;-117.188;2023-03-22T00:41:08;98746.31;;;12.81;93.17
37848;BME280;23688;33.130;-117.188;2023-03-22T00:43:36;98763.09;;;12.95;94.49
37848;BME280;23688;33.130;-117.188;2023-03-22T00:46:02;98738.59;;;12.85;94.69
37848;BME280;23688;33.130;-117.188;2023-03-22T00:48:29;98766.53;;;12.93;92.09
37848;BME280;23688;33.130;-117.188;2023-03-22T00:50:56;98762.09;;;12.89;95.51
37848;BME280;23688;33.130;-117.188;2023-03-22T00:53:22;98752.59;;;12.91;99.65
37848;BME280;23688;33.130;-117.188;2023-03-22T00:55:48;98756.75;;;12.82;100.00
37848;BME280;23688;33.130;-117.188;2023-03-22T00:58:15;98755.00;;;12.81;100.00
37848;BME280;23688;33.130;-117.188;2023-03-22T01:00:41;98767.06;;;12.76;100.00
37848;BME280;23688;33.130;-117.188;2023-03-22T01:03:09;98741.88;;;12.75;100.00
37848;BME280;23688;33.130;-117.188;2023-03-22T01:05:39;98741.44;;;12.55;100.00
37848;BME280;23688;33.130;-117.188;2023-03-22T01:08:05;98763.72;;;12.42;100.00
37848;BME280;23688;33.130;-117.188;2023-03-22T01:10:37;98770.66;;;12.42;100.00
37848;BME280;23688;33.130;-117.188;2023-03-22T01:13:04;98771.25;;;12.30;100.00
37848;BME280;23688;33.130;-117.188;2023-03-22T01:15:31;98775.78;;;12.01;100.00
37848;BME280;23688;33.130;-117.188;2023-03-22T01:17:58;98769.47;;;11.91;100.00
37848;BME280;23688;33.130;-117.188;2023-03-22T01:20:25;98780.59;;;11.86;100.00
37848;BME280;23688;33.130;-117.188;2023-03-22T01:22:52;98771.16;;;11.89;100.00
37848;BME280;23688;33.130;-117.188;2023-03-22T01:25:18;98777.56;;;11.69;100.00
37848;BME280;23688;33.130;-117.188;2023-03-22T01:27:45;98777.31;;;11.60;100.00
37848;BME280;23688;33.130;-117.188;2023-03-22T01:30:11;98763.16;;;11.48;100.00
37848;BME280;23688;33.130;-117.188;2023-03-22T01:32:38;98766.88;;;11.58;100.00
37848;BME280;23688;33.130;-117.188;2023-03-22T01:35:05;98764.25;;;11.56;100.00
37848;BME280;23688;33.130;-117.188;2023-03-22T01:37:32;98749.75;;;11.31;100.00
37848;BME280;23688;33.130;-117.188;2023-03-22T01:39:58;98774.41;;;11.47;100.00
37848;BME280;23688;33.130;-117.188;2023-03-22T01:42:26;98766.97;;;11.28;100.00
37848;BME280;23688;33.130;-117.188;2023-03-22T01:47:56;98767.41;;;11.45;100.00
37848;BME280;23688;33.130;-117.188;2023-03-22T01:50:25;98767.47;;;11.48;100.00
37848;BME280;23688;33.130;-117.188;2023-03-22T01:52:52;98757.44;;;11.28;100.00
37848;BME280;23688;33.130;-117.188;2023-03-22T01:55:20;98742.63;;;11.24;100.00
37848;BME280;23688;33.130;-117.188;2023-03-22T01:57:48;98744.78;;;11.41;100.00
37848;BME280;23688;33.130;-117.188;2023-03-22T02:00:16;98744.56;;;11.33;100.00
37848;BME280;23688;33.130;-117.188;2023-03-22T02:02:46;98732.50;;;11.35;100.00
37848;BME280;23688;33.130;-117.188;2023-03-22T02:05:14;98739.56;;;11.41;100.00
37848;BME280;23688;33.130;-117.188;2023-03-22T02:07:42;98727.03;;;11.24;100.00
37848;BME280;23688;33.130;-117.188;2023-03-22T02:10:14;98724.53;;;11.29;100.00
37848;BME280;23688;33.130;-117.188;2023-03-22T02:15:51;98752.44;;;11.36;100.00
37848;BME280;23688;33.130;-117.188;2023-03-22T02:38:20;98813.78;;;10.99;100.00
37848;BME280;23688;33.130;-117.188;2023-03-22T02:41:09;98775.78;;;10.71;100.00
37848;BME280;23688;33.130;-117.188;2023-03-22T02:46:43;98848.41;;;10.69;100.00
37848;BME280;23688;33.130;-117.188;2023-03-22T02:49:18;98836.28;;;10.68;100.00
37848;BME280;23688;33.130;-117.188;2023-03-22T02:54:34;98832.03;;;10.43;100.00
37848;BME280;23688;33.130;-117.188;2023-03-22T02:59:50;98849.13;;;10.64;100.00
37848;BME280;23688;33.130;-117.188;2023-03-22T03:02:18;98835.28;;;10.63;100.00
37848;BME280;23688;33.130;-117.188;2023-03-22T03:04:48;98856.22;;;10.69;100.00
37848;BME280;23688;33.130;-117.188;2023-03-22T03:07:20;98853.56;;;10.68;100.00
37848;BME280;23688;33.130;-117.188;2023-03-22T03:09:47;98859.91;;;10.78;100.00
37848;BME280;23688;33.130;-117.188;2023-03-22T03:12:19;98869.41;;;10.76;100.00
37848;BME280;23688;33.130;-117.188;2023-03-22T03:14:45;98871.22;;;10.80;100.00
37848;BME280;23688;33.130;-117.188;2023-03-22T03:17:23;98888.25;;;10.70;100.00
37848;BME280;23688;33.130;-117.188;2023-03-22T03:28:55;98903.63;;;10.64;100.00
37848;BME280;23688;33.130;-117.188;2023-03-22T03:34:10;98905.38;;;10.38;100.00
37848;BME280;23688;33.130;-117.188;2023-03-22T03:36:43;98943.44;;;10.37;100.00
37848;BME280;23688;33.130;-117.188;2023-03-22T03:39:13;98928.97;;;10.44;100.00
37848;BME280;23688;33.130;-117.188;2023-03-22T03:41:44;98927.34;;;10.47;100.00
37848;BME280;23688;33.130;-117.188;2023-03-22T03:44:14;98923.41;;;10.33;100.00
37848;BME280;23688;33.130;-117.188;2023-03-22T03:46:42;98936.63;;;10.41;100.00
37848;BME280;23688;33.130;-117.188;2023-03-22T03:49:10;98936.06;;;10.49;100.00
37848;BME280;23688;33.130;-117.188;2023-03-22T03:51:50;98938.91;;;10.57;100.00
37848;BME280;23688;33.130;-117.188;2023-03-22T03:54:17;98949.91;;;10.50;100.00
37848;BME280;23688;33.130;-117.188;2023-03-22T03:56:43;98941.00;;;10.42;100.00
37848;BME280;23688;33.130;-117.188;2023-03-22T03:59:16;98953.28;;;10.47;100.00
37848;BME280;23688;33.130;-117.188;2023-03-22T04:01:43;98948.97;;;10.48;100.00
37848;BME280;23688;33.130;-117.188;2023-03-22T04:04:22;98958.09;;;10.62;100.00
37848;BME280;23688;33.130;-117.188;2023-03-22T04:06:57;98957.69;;;10.50;100.00
37848;BME280;23688;33.130;-117.188;2023-03-22T04:09:25;98939.75;;;10.56;100.00
37848;BME280;23688;33.130;-117.188;2023-03-22T04:11:53;98965.16;;;10.66;100.00
37848;BME280;23688;33.130;-117.188;2023-03-22T04:14:20;98957.91;;;10.56;100.00
37848;BME280;23688;33.130;-117.188;2023-03-22T04:16:47;98953.69;;;10.60;100.00
37848;BME280;23688;33.130;-117.188;2023-03-22T04:19:14;98964.56;;;10.75;100.00
37848;BME280;23688;33.130;-117.188;2023-03-22T04:21:41;98948.09;;;10.75;100.00
37848;BME280;23688;33.130;-117.188;2023-03-22T04:24:08;98960.53;;;10.85;100.00
37848;BME280;23688;33.130;-117.188;2023-03-22T04:26:35;98958.53;;;10.76;100.00
37848;BME280;23688;33.130;-117.188;2023-03-22T04:29:01;98954.94;;;10.73;100.00
37848;BME280;23688;33.130;-117.188;2023-03-22T04:31:29;98960.16;;;10.73;100.00
37848;BME280;23688;33.130;-117.188;2023-03-22T04:33:55;98938.19;;;10.63;100.00
37848;BME280;23688;33.130;-117.188;2023-03-22T04:36:23;98934.00;;;10.66;100.00
37848;BME280;23688;33.130;-117.188;2023-03-22T04:38:49;98952.47;;;10.76;100.00
37848;BME280;23688;33.130;-117.188;2023-03-22T04:41:17;98963.00;;;10.80;100.00
37848;BME280;23688;33.130;-117.188;2023-03-22T04:43:43;98966.56;;;10.84;100.00
37848;BME280;23688;33.130;-117.188;2023-03-22T04:46:12;98966.50;;;10.82;100.00
37848;BME280;23688;33.130;-117.188;2023-03-22T04:48:40;98948.31;;;10.81;100.00
37848;BME280;23688;33.130;-117.188;2023-03-22T04:51:08;98962.34;;;10.87;100.00
37848;BME280;23688;33.130;-117.188;2023-03-22T04:53:35;98968.53;;;10.91;100.00
37848;BME280;23688;33.130;-117.188;2023-03-22T04:56:10;98963.69;;;10.75;100.00
37848;BME280;23688;33.130;-117.188;2023-03-22T04:58:38;98979.47;;;10.81;100.00
37848;BME280;23688;33.130;-117.188;2023-03-22T05:01:06;99004.00;;;10.90;100.00
37848;BME280;23688;33.130;-117.188;2023-03-22T05:03:32;98978.13;;;10.66;100.00
37848;BME280;23688;33.130;-117.188;2023-03-22T05:06:04;99004.63;;;10.56;100.00
37848;BME280;23688;33.130;-117.188;2023-03-22T05:08:32;98990.78;;;10.30;100.00
37848;BME280;23688;33.130;-117.188;2023-03-22T05:11:04;99011.06;;;10.42;100.00
37848;BME280;23688;33.130;-117.188;2023-03-22T05:13:32;99022.66;;;10.27;100.00
37848;BME280;23688;33.130;-117.188;2023-03-22T05:15:59;99025.78;;;10.19;100.00
37848;BME280;23688;33.130;-117.188;2023-03-22T05:18:25;99021.94;;;10.07;100.00
37848;BME280;23688;33.130;-117.188;2023-03-22T05:20:55;99021.56;;;9.97;100.00
37848;BME280;23688;33.130;-117.188;2023-03-22T05:23:22;99025.97;;;9.99;100.00
37848;BME280;23688;33.130;-117.188;2023-03-22T05:25:50;99041.34;;;9.95;100.00
37848;BME280;23688;33.130;-117.188;2023-03-22T05:28:19;99035.09;;;9.88;100.00
37848;BME280;23688;33.130;-117.188;2023-03-22T05:30:47;99047.63;;;10.00;100.00
37848;BME280;23688;33.130;-117.188;2023-03-22T05:33:13;99042.28;;;9.97;100.00
37848;BME280;23688;33.130;-117.188;2023-03-22T05:35:42;99038.91;;;9.98;100.00
37848;BME280;23688;33.130;-117.188;2023-03-22T05:38:09;99056.75;;;10.14;100.00
37848;BME280;23688;33.130;-117.188;2023-03-22T05:40:35;99054.91;;;10.10;100.00
37848;BME280;23688;33.130;-117.188;2023-03-22T05:43:02;99061.06;;;10.14;100.00
37848;BME280;23688;33.130;-117.188;2023-03-22T05:45:28;99068.91;;;10.15;100.00
37848;BME280;23688;33.130;-117.188;2023-03-22T05:47:56;99071.59;;;10.18;100.00
37848;BME280;23688;33.130;-117.188;2023-03-22T05:50:22;99075.03;;;10.17;100.00
37848;BME280;23688;33.130;-117.188;2023-03-22T05:52:49;99087.84;;;10.13;100.00
37848;BME280;23688;33.130;-117.188;2023-03-22T05:55:18;99082.66;;;10.13;100.00
37848;BME280;23688;33.130;-117.188;2023-03-22T05:57:45;99088.88;;;10.18;100.00
37848;BME280;23688;33.130;-117.188;2023-03-22T06:00:14;99090.53;;;10.16;100.00
37848;BME280;23688;33.130;-117.188;2023-03-22T06:02:41;99104.38;;;10.16;100.00
37848;BME280;23688;33.130;-117.188;2023-03-22T06:05:08;99084.47;;;10.15;100.00
37848;BME280;23688;33.130;-117.188;2023-03-22T06:07:39;99098.19;;;10.35;100.00
37848;BME280;23688;33.130;-117.188;2023-03-22T06:10:07;99098.56;;;10.22;100.00
37848;BME280;23688;33.130;-117.188;2023-03-22T06:12:34;99078.78;;;10.25;100.00
37848;BME280;23688;33.130;-117.188;2023-03-22T06:15:00;99088.97;;;10.19;100.00
37848;BME280;23688;33.130;-117.188;2023-03-22T06:17:27;99103.19;;;10.29;100.00
37848;BME280;23688;33.130;-117.188;2023-03-22T06:19:53;99107.47;;;10.28;100.00
37848;BME280;23688;33.130;-117.188;2023-03-22T06:22:20;99103.38;;;10.35;100.00
37848;BME280;23688;33.130;-117.188;2023-03-22T06:24:47;99109.28;;;10.31;100.00
37848;BME280;23688;33.130;-117.188;2023-03-22T06:27:14;99115.16;;;10.27;100.00
37848;BME280;23688;33.130;-117.188;2023-03-22T06:29:41;99118.56;;;10.26;100.00
37848;BME280;23688;33.130;-117.188;2023-03-22T06:32:07;99121.00;;;10.21;100.00
37848;BME280;23688;33.130;-117.188;2023-03-22T06:34:33;99111.34;;;10.17;100.00
37848;BME280;23688;33.130;-117.188;2023-03-22T06:37:00;99105.22;;;10.15;100.00
37848;BME280;23688;33.130;-117.188;2023-03-22T06:39:26;99110.34;;;10.14;100.00
37848;BME280;23688;33.130;-117.188;2023-03-22T06:41:53;99126.19;;;10.21;100.00
37848;BME280;23688;33.130;-117.188;2023-03-22T06:44:21;99125.38;;;10.22;100.00
37848;BME280;23688;33.130;-117.188;2023-03-22T06:46:48;99125.41;;;10.24;100.00
37848;BME280;23688;33.130;-117.188;2023-03-22T06:49:14;99121.13;;;10.24;100.00
37848;BME280;23688;33.130;-117.188;2023-03-22T06:51:41;99129.03;;;10.27;100.00
37848;BME280;23688;33.130;-117.188;2023-03-22T06:54:07;99123.94;;;10.29;100.00
37848;BME280;23688;33.130;-117.188;2023-03-22T06:56:34;99135.22;;;10.31;100.00
37848;BME280;23688;33.130;-117.188;2023-03-22T06:59:00;99130.97;;;10.33;100.00
37848;BME280;23688;33.130;-117.188;2023-03-22T07:01:26;99130.81;;;10.28;100.00
37848;BME280;23688;33.130;-117.188;2023-03-22T07:03:52;99140.03;;;10.44;100.00
37848;BME280;23688;33.130;-117.188;2023-03-22T07:06:19;99134.84;;;10.44;100.00
37848;BME280;23688;33.130;-117.188;2023-03-22T07:08:46;99120.44;;;10.28;100.00
37848;BME280;23688;33.130;-117.188;2023-03-22T07:11:12;99135.84;;;10.48;100.00
37848;BME280;23688;33.130;-117.188;2023-03-22T07:13:39;99136.06;;;10.30;100.00
37848;BME280;23688;33.130;-117.188;2023-03-22T07:16:05;99128.91;;;10.24;100.00
37848;BME280;23688;33.130;-117.188;2023-03-22T07:18:32;99143.00;;;10.31;100.00
37848;BME280;23688;33.130;-117.188;2023-03-22T07:20:58;99142.31;;;10.13;100.00
37848;BME280;23688;33.130;-117.188;2023-03-22T07:23:25;99151.66;;;10.09;100.00
37848;BME280;23688;33.130;-117.188;2023-03-22T07:25:51;99154.81;;;10.00;100.00
37848;BME280;23688;33.130;-117.188;2023-03-22T07:28:20;99160.28;;;10.08;100.00
37848;BME280;23688;33.130;-117.188;2023-03-22T07:30:47;99165.13;;;9.99;100.00
37848;BME280;23688;33.130;-117.188;2023-03-22T07:33:13;99163.41;;;9.99;100.00
37848;BME280;23688;33.130;-117.188;2023-03-22T07:35:40;99159.84;;;9.96;100.00
37848;BME280;23688;33.130;-117.188;2023-03-22T07:38:06;99156.06;;;9.88;100.00
37848;BME280;23688;33.130;-117.188;2023-03-22T07:40:32;99178.09;;;9.99;100.00
37848;BME280;23688;33.130;-117.188;2023-03-22T07:42:59;99168.38;;;9.93;100.00
37848;BME280;23688;33.130;-117.188;2023-03-22T07:45:25;99173.38;;;9.89;100.00
37848;BME280;23688;33.130;-117.188;2023-03-22T07:47:52;99191.75;;;9.95;100.00
37848;BME280;23688;33.130;-117.188;2023-03-22T07:50:18;99182.63;;;9.82;100.00
37848;BME280;23688;33.130;-117.188;2023-03-22T07:52:45;99159.56;;;9.67;100.00
37848;BME280;23688;33.130;-117.188;2023-03-22T07:55:13;99177.41;;;9.80;100.00
37848;BME280;23688;33.130;-117.188;2023-03-22T07:57:40;99187.41;;;9.71;100.00
37848;BME280;23688;33.130;-117.188;2023-03-22T08:00:07;99184.91;;;9.74;100.00
37848;BME280;23688;33.130;-117.188;2023-03-22T08:02:37;99186.44;;;9.69;100.00
37848;BME280;23688;33.130;-117.188;2023-03-22T08:05:05;99171.66;;;9.67;100.00
37848;BME280;23688;33.130;-117.188;2023-03-22T08:07:32;99181.91;;;9.63;100.00
37848;BME280;23688;33.130;-117.188;2023-03-22T08:09:58;99192.41;;;9.67;100.00
37848;BME280;23688;33.130;-117.188;2023-03-22T08:12:25;99187.22;;;9.67;100.00
37848;BME280;23688;33.130;-117.188;2023-03-22T08:14:52;99197.69;;;9.70;100.00
37848;BME280;23688;33.130;-117.188;2023-03-22T08:17:19;99188.19;;;9.70;100.00
37848;BME280;23688;33.130;-117.188;2023-03-22T08:19:45;99184.69;;;9.68;100.00
37848;BME280;23688;33.130;-117.188;2023-03-22T08:22:11;99196.94;;;9.72;100.00
37848;BME280;23688;33.130;-117.188;2023-03-22T08:24:38;99202.50;;;9.81;100.00
37848;BME280;23688;33.130;-117.188;2023-03-22T08:27:04;99205.38;;;9.89;100.00
37848;BME280;23688;33.130;-117.188;2023-03-22T08:29:31;99202.50;;;9.81;100.00
37848;BME280;23688;33.130;-117.188;2023-03-22T08:31:57;99201.03;;;9.88;100.00
37848;BME280;23688;33.130;-117.188;2023-03-22T08:34:29;99201.66;;;9.82;100.00
37848;BME280;23688;33.130;-117.188;2023-03-22T08:36:58;99201.53;;;9.79;100.00
37848;BME280;23688;33.130;-117.188;2023-03-22T08:39:24;99206.41;;;9.93;100.00
37848;BME280;23688;33.130;-117.188;2023-03-22T08:41:50;99203.47;;;9.85;100.00
37848;BME280;23688;33.130;-117.188;2023-03-22T08:44:17;99191.06;;;9.76;100.00
37848;BME280;23688;33.130;-117.188;2023-03-22T08:46:43;99217.75;;;9.96;100.00
37848;BME280;23688;33.130;-117.188;2023-03-22T08:49:12;99215.94;;;9.94;100.00
37848;BME280;23688;33.130;-117.188;2023-03-22T08:51:39;99217.28;;;9.84;100.00
37848;BME280;23688;33.130;-117.188;2023-03-22T08:54:06;99227.00;;;9.90;100.00
37848;BME280;23688;33.130;-117.188;2023-03-22T08:56:32;99228.91;;;9.94;100.00
37848;BME280;23688;33.130;-117.188;2023-03-22T08:59:06;99245.16;;;9.90;100.00
37848;BME280;23688;33.130;-117.188;2023-03-22T09:01:33;99245.72;;;9.82;100.00
37848;BME280;23688;33.130;-117.188;2023-03-22T09:04:01;99252.59;;;9.80;100.00
37848;BME280;23688;33.130;-117.188;2023-03-22T09:06:27;99250.56;;;9.73;100.00
37848;BME280;23688;33.130;-117.188;2023-03-22T09:08:54;99251.25;;;9.69;100.00
37848;BME280;23688;33.130;-117.188;2023-03-22T09:11:21;99248.47;;;9.64;100.00
37848;BME280;23688;33.130;-117.188;2023-03-22T09:13:48;99247.78;;;9.69;100.00
37848;BME280;23688;33.130;-117.188;2023-03-22T09:16:15;99247.50;;;9.62;100.00
37848;BME280;23688;33.130;-117.188;2023-03-22T09:18:41;99268.63;;;9.72;100.00
37848;BME280;23688;33.130;-117.188;2023-03-22T09:21:08;99264.84;;;9.63;100.00
37848;BME280;23688;33.130;-117.188;2023-03-22T09:23:37;99262.13;;;9.60;100.00
37848;BME280;23688;33.130;-117.188;2023-03-22T09:26:05;99255.09;;;9.58;100.00
37848;BME280;23688;33.130;-117.188;2023-03-22T09:28:33;99267.31;;;9.60;100.00
37848;BME280;23688;33.130;-117.188;2023-03-22T09:31:02;99269.97;;;9.62;100.00
37848;BME280;23688;33.130;-117.188;2023-03-22T09:33:29;99269.66;;;9.54;100.00
37848;BME280;23688;33.130;-117.188;2023-03-22T09:35:56;99262.88;;;9.58;100.00
37848;BME280;23688;33.130;-117.188;2023-03-22T09:38:23;99255.66;;;9.51;100.00
37848;BME280;23688;33.130;-117.188;2023-03-22T09:40:53;99261.22;;;9.60;100.00
37848;BME280;23688;33.130;-117.188;2023-03-22T09:43:32;99254.88;;;9.52;100.00
37848;BME280;23688;33.130;-117.188;2023-03-22T09:45:59;99242.84;;;9.54;100.00
37848;BME280;23688;33.130;-117.188;2023-03-22T09:48:30;99253.16;;;9.52;100.00
37848;BME280;23688;33.130;-117.188;2023-03-22T09:51:00;99252.31;;;9.53;100.00
37848;BME280;23688;33.130;-117.188;2023-03-22T09:53:28;99251.63;;;9.57;100.00
37848;BME280;23688;33.130;-117.188;2023-03-22T09:56:08;99259.03;;;9.69;100.00
37848;BME280;23688;33.130;-117.188;2023-03-22T10:04:19;99274.28;;;9.21;100.00
37848;BME280;23688;33.130;-117.188;2023-03-22T10:07:05;99271.25;;;9.10;100.00
37848;BME280;23688;33.130;-117.188;2023-03-22T10:18:14;99273.88;;;9.12;100.00
37848;BME280;23688;33.130;-117.188;2023-03-22T10:21:01;99265.50;;;9.17;100.00
37848;BME280;23688;33.130;-117.188;2023-03-22T10:23:39;99279.03;;;9.31;100.00
37848;BME280;23688;33.130;-117.188;2023-03-22T10:26:09;99281.44;;;9.27;100.00
37848;BME280;23688;33.130;-117.188;2023-03-22T10:28:43;99265.06;;;9.28;100.00
37848;BME280;23688;33.130;-117.188;2023-03-22T10:31:17;99301.13;;;9.23;100.00
37848;BME280;23688;33.130;-117.188;2023-03-22T10:33:56;99299.97;;;8.77;100.00
37848;BME280;23688;33.130;-117.188;2023-03-22T10:36:27;99305.75;;;8.52;100.00
37848;BME280;23688;33.130;-117.188;2023-03-22T10:39:14;99311.50;;;8.29;100.00
37848;BME280;23688;33.130;-117.188;2023-03-22T10:41:44;99298.47;;;8.08;100.00
37848;BME280;23688;33.130;-117.188;2023-03-22T10:44:18;99316.25;;;8.20;100.00
37848;BME280;23688;33.130;-117.188;2023-03-22T10:46:45;99312.56;;;8.14;100.00
37848;BME280;23688;33.130;-117.188;2023-03-22T10:49:36;99309.88;;;8.31;100.00
37848;BME280;23688;33.130;-117.188;2023-03-22T10:52:19;99293.84;;;8.38;100.00
37848;BME280;23688;33.130;-117.188;2023-03-22T10:54:48;99307.97;;;8.45;100.00
37848;BME280;23688;33.130;-117.188;2023-03-22T10:57:14;99299.56;;;8.49;100.00
37848;BME280;23688;33.130;-117.188;2023-03-22T10:59:46;99309.84;;;8.67;100.00
37848;BME280;23688;33.130;-117.188;2023-03-22T11:02:18;99321.94;;;8.48;100.00
37848;BME280;23688;33.130;-117.188;2023-03-22T11:05:05;99320.03;;;8.44;100.00
37848;BME280;23688;33.130;-117.188;2023-03-22T11:07:37;99324.53;;;8.48;100.00
37848;BME280;23688;33.130;-117.188;2023-03-22T11:12:38;99327.81;;;8.44;100.00
37848;BME280;23688;33.130;-117.188;2023-03-22T11:15:13;99325.03;;;8.59;100.00
37848;BME280;23688;33.130;-117.188;2023-03-22T11:17:44;99321.31;;;8.72;100.00
37848;BME280;23688;33.130;-117.188;2023-03-22T11:20:15;99325.59;;;8.71;100.00
37848;BME280;23688;33.130;-117.188;2023-03-22T11:22:44;99342.97;;;8.74;100.00
37848;BME280;23688;33.130;-117.188;2023-03-22T11:25:15;99346.53;;;8.58;100.00
37848;BME280;23688;33.130;-117.188;2023-03-22T11:27:52;99326.75;;;8.59;100.00
37848;BME280;23688;33.130;-117.188;2023-03-22T11:30:27;99345.44;;;8.71;100.00
37848;BME280;23688;33.130;-117.188;2023-03-22T11:33:14;99360.56;;;8.81;100.00
37848;BME280;23688;33.130;-117.188;2023-03-22T11:35:43;99354.03;;;8.89;100.00
37848;BME280;23688;33.130;-117.188;2023-03-22T11:38:25;99360.78;;;8.86;100.00
37848;BME280;23688;33.130;-117.188;2023-03-22T11:41:01;99361.34;;;8.80;100.00
37848;BME280;23688;33.130;-117.188;2023-03-22T11:43:41;99359.44;;;8.56;100.00
37848;BME280;23688;33.130;-117.188;2023-03-22T11:46:15;99353.16;;;8.51;100.00
37848;BME280;23688;33.130;-117.188;2023-03-22T11:48:46;99369.47;;;8.50;100.00
37848;BME280;23688;33.130;-117.188;2023-03-22T11:51:24;99369.13;;;8.43;100.00
37848;BME280;23688;33.130;-117.188;2023-03-22T11:53:53;99384.41;;;8.56;100.00
37848;BME280;23688;33.130;-117.188;2023-03-22T11:56:26;99390.69;;;8.43;100.00
37848;BME280;23688;33.130;-117.188;2023-03-22T11:59:02;99396.50;;;8.39;100.00
37848;BME280;23688;33.130;-117.188;2023-03-22T12:01:51;99387.53;;;8.49;100.00
37848;BME280;23688;33.130;-117.188;2023-03-22T12:04:24;99402.31;;;8.51;100.00
37848;BME280;23688;33.130;-117.188;2023-03-22T12:06:56;99400.25;;;8.44;100.00
37848;BME280;23688;33.130;-117.188;2023-03-22T12:09:43;99404.06;;;8.52;100.00
37848;BME280;23688;33.130;-117.188;2023-03-22T12:12:19;99405.03;;;8.54;100.00
37848;BME280;23688;33.130;-117.188;2023-03-22T12:22:49;99420.00;;;8.79;100.00
37848;BME280;23688;33.130;-117.188;2023-03-22T12:25:39;99411.47;;;8.81;100.00
37848;BME280;23688;33.130;-117.188;2023-03-22T12:28:13;99415.13;;;8.86;100.00
37848;BME280;23688;33.130;-117.188;2023-03-22T12:30:54;99412.47;;;8.84;100.00
37848;BME280;23688;33.130;-117.188;2023-03-22T12:35:56;99441.06;;;8.87;100.00
37848;BME280;23688;33.130;-117.188;2023-03-22T12:38:40;99434.06;;;8.85;100.00
37848;BME280;23688;33.130;-117.188;2023-03-22T12:41:27;99433.56;;;8.74;100.00
37848;BME280;23688;33.130;-117.188;2023-03-22T12:46:41;99414.78;;;8.42;100.00
37848;BME280;23688;33.130;-117.188;2023-03-22T12:49:28;99456.03;;;8.57;100.00
37848;BME280;23688;33.130;-117.188;2023-03-22T12:52:05;99444.69;;;8.37;100.00
37848;BME280;23688;33.130;-117.188;2023-03-22T12:54:37;99456.94;;;8.23;100.00
37848;BME280;23688;33.130;-117.188;2023-03-22T12:57:04;99457.56;;;8.01;100.00
37848;BME280;23688;33.130;-117.188;2023-03-22T12:59:31;99452.75;;;7.91;100.00
37848;BME280;23688;33.130;-117.188;2023-03-22T13:02:13;99469.38;;;7.96;100.00
37848;BME280;23688;33.130;-117.188;2023-03-22T13:09:49;99475.28;;;7.93;100.00
37848;BME280;23688;33.130;-117.188;2023-03-22T13:14:55;99492.63;;;7.96;100.00
37848;BME280;23688;33.130;-117.188;2023-03-22T13:27:57;99521.81;;;7.77;100.00
37848;BME280;23688;33.130;-117.188;2023-03-22T13:33:06;99527.84;;;8.10;100.00
37848;BME280;23688;33.130;-117.188;2023-03-22T13:35:45;99529.34;;;8.23;100.00
37848;BME280;23688;33.130;-117.188;2023-03-22T13:38:38;99528.44;;;8.39;100.00
37848;BME280;23688;33.130;-117.188;2023-03-22T13:43:52;99540.94;;;8.64;100.00
37848;BME280;23688;33.130;-117.188;2023-03-22T13:54:07;99560.41;;;8.74;100.00
37848;BME280;23688;33.130;-117.188;2023-03-22T14:07:25;99562.72;;;8.86;100.00
37848;BME280;23688;33.130;-117.188;2023-03-22T14:09:55;99555.44;;;8.78;100.00
37848;BME280;23688;33.130;-117.188;2023-03-22T14:12:29;99566.19;;;8.86;100.00
37848;BME280;23688;33.130;-117.188;2023-03-22T14:15:00;99565.06;;;8.81;100.00
37848;BME280;23688;33.130;-117.188;2023-03-22T14:17:38;99561.81;;;8.85;100.00
37848;BME280;23688;33.130;-117.188;2023-03-22T14:20:13;99570.94;;;8.95;100.00
37848;BME280;23688;33.130;-117.188;2023-03-22T14:22:56;99571.63;;;8.92;100.00
37848;BME280;23688;33.130;-117.188;2023-03-22T14:25:29;99578.38;;;9.07;100.00
37848;BME280;23688;33.130;-117.188;2023-03-22T14:27:57;99589.72;;;9.09;100.00
37848;BME280;23688;33.130;-117.188;2023-03-22T14:32:57;99590.03;;;9.15;100.00
37848;BME280;23688;33.130;-117.188;2023-03-22T14:35:37;99590.91;;;9.15;100.00
37848;BME280;23688;33.130;-117.188;2023-03-22T14:38:14;99590.81;;;9.14;100.00
37848;BME280;23688;33.130;-117.188;2023-03-22T14:40:41;99603.38;;;9.24;100.00